^^
Meteo Knjazevac Station Historical Data
Daily Summary for June 24, 2022 Units:  English    Metric   Both
Daily Weekly Monthly Yearly Custom
  High: Low: Average:
Temperature: 64.2 °F 57.6 °F 60.6 °F
Dew Point: 62.4 °F 57.3 °F 59.8 °F
Humidity: 99% 94% 97%
Wind Speed: 3mph 0mph 0.6mph
Wind Gust: 5mph - -
Wind- - SSE
Pressure: 30.04 in 30.03 in -
Precipitation: 0.00 in    
Historical Graphs
 
 
Tabular Data for June 24, 2022
Time Temperature Dew Point Pressure Wind Wind Speed Wind Gust Humidity Rainfall Rate (Hourly) solar Conditions
00:00 64.2 °F 62.4 °F 30.04 in NE 2 mph 3 mph 94% 0.00 in 0 W/m2
00:10 64 °F 62.3 °F 30.04 in NE 1 mph 3 mph 94% 0.00 in 0 W/m2
00:20 63.9 °F 62.1 °F 30.04 in Calm   2 mph 94% 0.00 in 0 W/m2
00:30 63.9 °F 62.4 °F 30.04 in NE 1 mph 3 mph 95% 0.00 in 0 W/m2
00:40 63.5 °F 61.7 °F 30.04 in South 1 mph 3 mph 94% 0.00 in 0 W/m2
00:50 63.3 °F 61.6 °F 30.04 in Calm   5 mph 94% 0.00 in 0 W/m2
01:00 63.1 °F 61.7 °F 30.03 in Calm   2 mph 95% 0.00 in 0 W/m2
01:10 63 °F 61.5 °F 30.03 in ENE 3 mph 5 mph 95% 0.00 in 0 W/m2
01:30 62.8 °F 61.3 °F 30.03 in North 1 mph 5 mph 95% 0.00 in 0 W/m2
01:40 62.4 °F 61 °F 30.03 in NW 1 mph 2 mph 95% 0.00 in 0 W/m2
01:50 61.9 °F 60.4 °F 30.04 in SW 2 mph 3 mph 95% 0.00 in 0 W/m2
02:10 61 °F 59.8 °F 30.04 in WNW 1 mph 3 mph 96% 0.00 in 0 W/m2
02:20 60.8 °F 60.2 °F 30.04 in Calm   2 mph 98% 0.00 in 0 W/m2
02:30 60.8 °F 60.2 °F 30.04 in North 1 mph 2 mph 98% 0.00 in 0 W/m2
02:40 60.6 °F 60.1 °F 30.04 in Calm   2 mph 98% 0.00 in 0 W/m2
02:50 60.4 °F 59.9 °F 30.04 in North 1 mph 2 mph 98% 0.00 in 0 W/m2
03:00 60.4 °F 60.2 °F 30.04 in NE 1 mph 5 mph 99% 0.00 in 0 W/m2
03:10 60.3 °F 59.7 °F 30.04 in SE 1 mph 5 mph 98% 0.00 in 0 W/m2
03:20 59.9 °F 59.3 °F 30.03 in Calm   2 mph 98% 0.00 in 0 W/m2
03:30 59.9 °F 59.6 °F 30.03 in Calm   3 mph 99% 0.00 in 0 W/m2
03:40 59.9 °F 59.6 °F 30.03 in Calm   2 mph 99% 0.00 in 0 W/m2
03:50 59.7 °F 59.4 °F 30.03 in Calm   2 mph 99% 0.00 in 0 W/m2
04:00 59.5 °F 59 °F 30.03 in Calm   2 mph 98% 0.00 in 0 W/m2
04:10 59.3 °F 58.8 °F 30.03 in NW 1 mph 2 mph 98% 0.00 in 0 W/m2
04:30 58.8 °F 58.3 °F 30.03 in Calm   1 mph 98% 0.00 in 0 W/m2
04:40 58.6 °F 58.1 °F 30.03 in Calm   2 mph 98% 0.00 in 0 W/m2
04:50 58.3 °F 57.7 °F 30.03 in Calm   2 mph 98% 0.00 in 3 W/m2
05:10 58.1 °F 57.5 °F 30.03 in Calm   2 mph 98% 0.00 in 13 W/m2
05:20 57.9 °F 57.6 °F 30.04 in Calm   2 mph 99% 0.00 in 21 W/m2
05:30 57.7 °F 57.5 °F 30.04 in Calm   2 mph 99% 0.00 in 29 W/m2
05:40 57.7 °F 57.5 °F 30.04 in Calm   1 mph 99% 0.00 in 37 W/m2
05:50 57.6 °F 57.3 °F 30.04 in NW 1 mph 2 mph 99% 0.00 in 66 W/m2
06:00 57.7 °F 57.5 °F 30.04 in West 2 mph 3 mph 99% 0.00 in 53 W/m2
Knjazevac, Serbia
Compliments of Weather Underground - 2 mb